sensor_id;sensor_type;location;lat;lon;timestamp;temperature;humidity
39919;DHT22;25589;51.552;13.424;2022-10-24T00:00:15;15.40;99.90
39919;DHT22;25589;51.552;13.424;2022-10-24T00:02:41;15.30;99.90
39919;DHT22;25589;51.552;13.424;2022-10-24T00:05:07;15.40;99.90
39919;DHT22;25589;51.552;13.424;2022-10-24T00:07:33;15.40;99.90
39919;DHT22;25589;51.552;13.424;2022-10-24T00:09:58;15.40;99.90
39919;DHT22;25589;51.552;13.424;2022-10-24T00:12:25;15.30;99.90
39919;DHT22;25589;51.552;13.424;2022-10-24T00:14:50;15.40;99.90
39919;DHT22;25589;51.552;13.424;2022-10-24T00:17:16;15.30;99.90
39919;DHT22;25589;51.552;13.424;2022-10-24T00:19:41;15.20;99.90
39919;DHT22;25589;51.552;13.424;2022-10-24T00:22:07;15.90;99.90
39919;DHT22;25589;51.552;13.424;2022-10-24T00:24:32;15.20;99.90
39919;DHT22;25589;51.552;13.424;2022-10-24T00:26:58;15.20;99.90
39919;DHT22;25589;51.552;13.424;2022-10-24T00:29:24;15.20;99.90
39919;DHT22;25589;51.552;13.424;2022-10-24T00:31:49;15.20;99.90
39919;DHT22;25589;51.552;13.424;2022-10-24T00:34:15;15.20;99.90
39919;DHT22;25589;51.552;13.424;2022-10-24T00:36:41;15.10;99.90
39919;DHT22;25589;51.552;13.424;2022-10-24T00:39:06;15.00;99.90
39919;DHT22;25589;51.552;13.424;2022-10-24T00:41:37;15.00;99.90
39919;DHT22;25589;51.552;13.424;2022-10-24T00:44:20;14.80;99.90
39919;DHT22;25589;51.552;13.424;2022-10-24T00:46:56;14.70;99.90
39919;DHT22;25589;51.552;13.424;2022-10-24T00:49:27;14.80;99.90
39919;DHT22;25589;51.552;13.424;2022-10-24T00:51:57;14.80;99.90
39919;DHT22;25589;51.552;13.424;2022-10-24T00:54:24;14.90;99.90
39919;DHT22;25589;51.552;13.424;2022-10-24T00:56:58;14.80;99.90
39919;DHT22;25589;51.552;13.424;2022-10-24T00:59:26;14.80;99.90
39919;DHT22;25589;51.552;13.424;2022-10-24T01:01:52;14.80;99.90
39919;DHT22;25589;51.552;13.424;2022-10-24T01:04:17;14.80;99.90
39919;DHT22;25589;51.552;13.424;2022-10-24T01:17:44;14.80;99.90
39919;DHT22;25589;51.552;13.424;2022-10-24T01:26:04;14.90;99.90
39919;DHT22;25589;51.552;13.424;2022-10-24T01:31:34;14.80;99.90
39919;DHT22;25589;51.552;13.424;2022-10-24T01:34:11;15.00;99.90
39919;DHT22;25589;51.552;13.424;2022-10-24T01:36:45;15.30;99.90
39919;DHT22;25589;51.552;13.424;2022-10-24T01:39:12;14.90;99.90
39919;DHT22;25589;51.552;13.424;2022-10-24T01:41:40;14.90;99.90
39919;DHT22;25589;51.552;13.424;2022-10-24T01:44:21;15.30;99.90
39919;DHT22;25589;51.552;13.424;2022-10-24T01:46:53;14.70;99.90
39919;DHT22;25589;51.552;13.424;2022-10-24T01:49:21;14.90;99.90
39919;DHT22;25589;51.552;13.424;2022-10-24T01:54:16;14.90;99.90
39919;DHT22;25589;51.552;13.424;2022-10-24T01:56:41;14.90;99.90
39919;DHT22;25589;51.552;13.424;2022-10-24T02:04:26;15.50;99.90
39919;DHT22;25589;51.552;13.424;2022-10-24T02:06:55;14.60;99.90
39919;DHT22;25589;51.552;13.424;2022-10-24T02:09:21;15.20;99.90
39919;DHT22;25589;51.552;13.424;2022-10-24T02:11:51;14.90;99.90
39919;DHT22;25589;51.552;13.424;2022-10-24T02:14:26;14.90;99.90
39919;DHT22;25589;51.552;13.424;2022-10-24T02:16:52;15.10;99.90
39919;DHT22;25589;51.552;13.424;2022-10-24T02:19:18;14.90;99.90
39919;DHT22;25589;51.552;13.424;2022-10-24T02:21:59;14.90;99.90
39919;DHT22;25589;51.552;13.424;2022-10-24T02:24:34;15.30;99.90
39919;DHT22;25589;51.552;13.424;2022-10-24T02:27:15;14.90;99.90
39919;DHT22;25589;51.552;13.424;2022-10-24T02:29:50;14.80;99.90
39919;DHT22;25589;51.552;13.424;2022-10-24T02:32:22;14.60;99.90
39919;DHT22;25589;51.552;13.424;2022-10-24T02:34:49;14.90;99.90
39919;DHT22;25589;51.552;13.424;2022-10-24T02:37:17;14.60;99.90
39919;DHT22;25589;51.552;13.424;2022-10-24T02:39:45;14.60;99.90
39919;DHT22;25589;51.552;13.424;2022-10-24T02:42:11;14.80;99.90
39919;DHT22;25589;51.552;13.424;2022-10-24T02:44:39;15.20;99.90
39919;DHT22;25589;51.552;13.424;2022-10-24T02:47:07;14.80;99.90
39919;DHT22;25589;51.552;13.424;2022-10-24T02:49:35;14.80;99.90
39919;DHT22;25589;51.552;13.424;2022-10-24T02:52:01;14.60;99.90
39919;DHT22;25589;51.552;13.424;2022-10-24T02:54:27;14.50;99.90
39919;DHT22;25589;51.552;13.424;2022-10-24T02:56:57;14.80;99.90
39919;DHT22;25589;51.552;13.424;2022-10-24T02:59:23;14.80;99.90
39919;DHT22;25589;51.552;13.424;2022-10-24T03:01:49;14.80;99.90
39919;DHT22;25589;51.552;13.424;2022-10-24T03:04:15;14.80;99.90
39919;DHT22;25589;51.552;13.424;2022-10-24T03:06:42;14.80;99.90
39919;DHT22;25589;51.552;13.424;2022-10-24T03:09:08;14.80;99.90
39919;DHT22;25589;51.552;13.424;2022-10-24T03:11:33;14.90;99.90
39919;DHT22;25589;51.552;13.424;2022-10-24T03:13:59;14.80;99.90
39919;DHT22;25589;51.552;13.424;2022-10-24T03:16:25;15.00;99.90
39919;DHT22;25589;51.552;13.424;2022-10-24T03:18:52;14.40;99.90
39919;DHT22;25589;51.552;13.424;2022-10-24T03:21:17;15.10;99.90
39919;DHT22;25589;51.552;13.424;2022-10-24T03:23:43;14.80;99.90
39919;DHT22;25589;51.552;13.424;2022-10-24T03:26:08;14.70;99.90
39919;DHT22;25589;51.552;13.424;2022-10-24T03:28:34;15.10;99.90
39919;DHT22;25589;51.552;13.424;2022-10-24T03:30:59;14.70;99.90
39919;DHT22;25589;51.552;13.424;2022-10-24T03:33:25;14.70;99.90
39919;DHT22;25589;51.552;13.424;2022-10-24T03:35:52;14.70;99.90
39919;DHT22;25589;51.552;13.424;2022-10-24T03:38:18;14.40;99.90
39919;DHT22;25589;51.552;13.424;2022-10-24T03:40:44;14.70;99.90
39919;DHT22;25589;51.552;13.424;2022-10-24T03:43:10;14.70;99.90
39919;DHT22;25589;51.552;13.424;2022-10-24T03:45:35;14.70;99.90
39919;DHT22;25589;51.552;13.424;2022-10-24T03:48:03;14.70;99.90
39919;DHT22;25589;51.552;13.424;2022-10-24T03:50:28;14.70;99.90
39919;DHT22;25589;51.552;13.424;2022-10-24T03:52:54;14.70;99.90
39919;DHT22;25589;51.552;13.424;2022-10-24T03:55:20;14.60;99.90
39919;DHT22;25589;51.552;13.424;2022-10-24T03:57:45;14.50;99.90
39919;DHT22;25589;51.552;13.424;2022-10-24T04:00:12;14.60;99.90
39919;DHT22;25589;51.552;13.424;2022-10-24T04:02:38;15.10;99.90
39919;DHT22;25589;51.552;13.424;2022-10-24T04:05:04;14.80;99.90
39919;DHT22;25589;51.552;13.424;2022-10-24T04:07:30;14.80;99.90
39919;DHT22;25589;51.552;13.424;2022-10-24T04:09:55;14.50;99.90
39919;DHT22;25589;51.552;13.424;2022-10-24T04:12:22;14.80;99.90
39919;DHT22;25589;51.552;13.424;2022-10-24T04:14:48;14.50;99.90
39919;DHT22;25589;51.552;13.424;2022-10-24T04:17:13;14.50;99.90
39919;DHT22;25589;51.552;13.424;2022-10-24T04:19:39;14.60;99.90
39919;DHT22;25589;51.552;13.424;2022-10-24T04:22:04;14.60;99.90
39919;DHT22;25589;51.552;13.424;2022-10-24T04:24:30;14.60;99.90
39919;DHT22;25589;51.552;13.424;2022-10-24T04:29:22;14.50;99.90
39919;DHT22;25589;51.552;13.424;2022-10-24T04:31:47;14.60;99.90
39919;DHT22;25589;51.552;13.424;2022-10-24T04:34:13;14.60;99.90
39919;DHT22;25589;51.552;13.424;2022-10-24T04:36:38;14.80;99.90
39919;DHT22;25589;51.552;13.424;2022-10-24T04:39:04;14.60;99.90
39919;DHT22;25589;51.552;13.424;2022-10-24T04:41:30;14.50;99.90
39919;DHT22;25589;51.552;13.424;2022-10-24T04:43:55;14.60;99.90
39919;DHT22;25589;51.552;13.424;2022-10-24T04:46:21;14.60;99.90
39919;DHT22;25589;51.552;13.424;2022-10-24T04:48:47;14.60;99.90
39919;DHT22;25589;51.552;13.424;2022-10-24T04:51:12;14.60;99.90
39919;DHT22;25589;51.552;13.424;2022-10-24T04:53:38;14.50;99.90
39919;DHT22;25589;51.552;13.424;2022-10-24T04:56:04;14.60;99.90
39919;DHT22;25589;51.552;13.424;2022-10-24T04:58:30;14.60;99.90
39919;DHT22;25589;51.552;13.424;2022-10-24T05:00:55;14.50;99.90
39919;DHT22;25589;51.552;13.424;2022-10-24T05:03:21;14.60;99.90
39919;DHT22;25589;51.552;13.424;2022-10-24T05:05:48;14.60;99.90
39919;DHT22;25589;51.552;13.424;2022-10-24T05:08:13;14.50;99.90
39919;DHT22;25589;51.552;13.424;2022-10-24T05:10:39;14.60;99.90
39919;DHT22;25589;51.552;13.424;2022-10-24T05:13:05;13.90;99.90
39919;DHT22;25589;51.552;13.424;2022-10-24T05:15:30;14.60;99.90
39919;DHT22;25589;51.552;13.424;2022-10-24T05:17:56;14.60;99.90
39919;DHT22;25589;51.552;13.424;2022-10-24T05:20:22;14.60;99.90
39919;DHT22;25589;51.552;13.424;2022-10-24T05:22:48;14.90;99.90
39919;DHT22;25589;51.552;13.424;2022-10-24T05:25:13;15.00;99.90
39919;DHT22;25589;51.552;13.424;2022-10-24T05:27:39;14.70;99.90
39919;DHT22;25589;51.552;13.424;2022-10-24T05:30:05;14.70;99.90
39919;DHT22;25589;51.552;13.424;2022-10-24T05:32:31;14.80;99.90
39919;DHT22;25589;51.552;13.424;2022-10-24T05:34:57;15.00;99.90
39919;DHT22;25589;51.552;13.424;2022-10-24T05:37:22;14.70;99.90
39919;DHT22;25589;51.552;13.424;2022-10-24T05:39:48;14.70;99.90
39919;DHT22;25589;51.552;13.424;2022-10-24T05:42:14;14.80;99.90
39919;DHT22;25589;51.552;13.424;2022-10-24T05:44:39;14.70;99.90
39919;DHT22;25589;51.552;13.424;2022-10-24T05:47:05;14.70;99.90
39919;DHT22;25589;51.552;13.424;2022-10-24T05:49:31;14.70;99.90
39919;DHT22;25589;51.552;13.424;2022-10-24T05:51:56;15.10;99.90
39919;DHT22;25589;51.552;13.424;2022-10-24T05:54:22;14.20;99.90
39919;DHT22;25589;51.552;13.424;2022-10-24T05:56:47;14.70;99.90
39919;DHT22;25589;51.552;13.424;2022-10-24T05:59:13;14.70;99.90
39919;DHT22;25589;51.552;13.424;2022-10-24T06:01:39;15.30;99.90
39919;DHT22;25589;51.552;13.424;2022-10-24T06:04:04;14.70;99.90
39919;DHT22;25589;51.552;13.424;2022-10-24T06:06:30;14.70;99.90
39919;DHT22;25589;51.552;13.424;2022-10-24T06:08:56;14.70;99.90
39919;DHT22;25589;51.552;13.424;2022-10-24T06:11:22;14.70;99.90
39919;DHT22;25589;51.552;13.424;2022-10-24T06:13:47;14.70;99.90
39919;DHT22;25589;51.552;13.424;2022-10-24T06:16:13;14.70;99.90
39919;DHT22;25589;51.552;13.424;2022-10-24T06:18:39;15.10;99.90
39919;DHT22;25589;51.552;13.424;2022-10-24T06:21:06;14.70;99.90
39919;DHT22;25589;51.552;13.424;2022-10-24T06:23:32;14.70;99.90
39919;DHT22;25589;51.552;13.424;2022-10-24T06:25:58;15.30;99.90
39919;DHT22;25589;51.552;13.424;2022-10-24T06:28:24;14.80;99.90
39919;DHT22;25589;51.552;13.424;2022-10-24T06:30:50;14.90;99.90
39919;DHT22;25589;51.552;13.424;2022-10-24T06:33:16;15.30;99.90
39919;DHT22;25589;51.552;13.424;2022-10-24T06:35:42;14.90;99.90
39919;DHT22;25589;51.552;13.424;2022-10-24T06:38:07;15.00;99.90
39919;DHT22;25589;51.552;13.424;2022-10-24T06:40:33;15.10;99.90
39919;DHT22;25589;51.552;13.424;2022-10-24T06:43:01;15.10;99.90
39919;DHT22;25589;51.552;13.424;2022-10-24T06:45:27;15.20;99.90
39919;DHT22;25589;51.552;13.424;2022-10-24T06:47:52;15.20;99.90
39919;DHT22;25589;51.552;13.424;2022-10-24T06:50:18;15.20;99.90
39919;DHT22;25589;51.552;13.424;2022-10-24T06:52:43;15.40;99.90
39919;DHT22;25589;51.552;13.424;2022-10-24T06:55:09;15.50;99.90
39919;DHT22;25589;51.552;13.424;2022-10-24T06:57:35;15.30;99.90
39919;DHT22;25589;51.552;13.424;2022-10-24T07:00:00;15.70;99.90
39919;DHT22;25589;51.552;13.424;2022-10-24T07:02:26;15.30;99.90
39919;DHT22;25589;51.552;13.424;2022-10-24T07:04:51;15.40;99.90
39919;DHT22;25589;51.552;13.424;2022-10-24T07:07:19;15.40;99.90
39919;DHT22;25589;51.552;13.424;2022-10-24T07:09:51;15.10;99.90
39919;DHT22;25589;51.552;13.424;2022-10-24T07:12:16;15.50;99.90
39919;DHT22;25589;51.552;13.424;2022-10-24T07:14:42;15.50;99.90
39919;DHT22;25589;51.552;13.424;2022-10-24T07:17:07;15.60;99.90
39919;DHT22;25589;51.552;13.424;2022-10-24T07:19:33;15.80;99.90
39919;DHT22;25589;51.552;13.424;2022-10-24T07:21:58;15.80;99.90
39919;DHT22;25589;51.552;13.424;2022-10-24T07:24:24;15.90;99.90
39919;DHT22;25589;51.552;13.424;2022-10-24T07:26:50;16.00;99.90
39919;DHT22;25589;51.552;13.424;2022-10-24T07:29:15;16.10;99.90
39919;DHT22;25589;51.552;13.424;2022-10-24T07:31:41;16.20;99.90
39919;DHT22;25589;51.552;13.424;2022-10-24T07:34:07;15.70;99.90
39919;DHT22;25589;51.552;13.424;2022-10-24T07:36:33;16.20;99.90
39919;DHT22;25589;51.552;13.424;2022-10-24T07:38:59;16.30;99.90
39919;DHT22;25589;51.552;13.424;2022-10-24T07:41:27;16.30;99.90
39919;DHT22;25589;51.552;13.424;2022-10-24T07:43:53;16.40;99.90
39919;DHT22;25589;51.552;13.424;2022-10-24T07:46:22;16.40;99.90
39919;DHT22;25589;51.552;13.424;2022-10-24T07:48:49;16.50;99.90
39919;DHT22;25589;51.552;13.424;2022-10-24T07:51:16;16.50;99.90
39919;DHT22;25589;51.552;13.424;2022-10-24T07:53:42;17.10;99.90
39919;DHT22;25589;51.552;13.424;2022-10-24T07:56:12;16.90;99.90
39919;DHT22;25589;51.552;13.424;2022-10-24T07:58:44;17.40;99.90
39919;DHT22;25589;51.552;13.424;2022-10-24T08:01:15;17.00;99.90
39919;DHT22;25589;51.552;13.424;2022-10-24T08:03:41;17.20;99.90
39919;DHT22;25589;51.552;13.424;2022-10-24T08:06:18;17.30;99.90
39919;DHT22;25589;51.552;13.424;2022-10-24T08:08:44;17.40;99.90
39919;DHT22;25589;51.552;13.424;2022-10-24T08:13:38;17.70;99.90
39919;DHT22;25589;51.552;13.424;2022-10-24T08:16:05;17.60;99.90
39919;DHT22;25589;51.552;13.424;2022-10-24T08:18:31;17.60;99.90
39919;DHT22;25589;51.552;13.424;2022-10-24T08:20:58;17.50;99.90
39919;DHT22;25589;51.552;13.424;2022-10-24T08:23:24;17.80;99.90
39919;DHT22;25589;51.552;13.424;2022-10-24T08:25:49;17.80;99.90
39919;DHT22;25589;51.552;13.424;2022-10-24T08:28:15;17.80;99.90
39919;DHT22;25589;51.552;13.424;2022-10-24T08:30:40;17.90;99.90
39919;DHT22;25589;51.552;13.424;2022-10-24T08:33:06;18.00;99.90
39919;DHT22;25589;51.552;13.424;2022-10-24T08:35:31;18.00;99.90
39919;DHT22;25589;51.552;13.424;2022-10-24T08:37:57;18.10;99.90
39919;DHT22;25589;51.552;13.424;2022-10-24T08:40:23;18.10;99.90
39919;DHT22;25589;51.552;13.424;2022-10-24T08:42:49;18.20;99.90
39919;DHT22;25589;51.552;13.424;2022-10-24T08:45:21;18.30;99.90
39919;DHT22;25589;51.552;13.424;2022-10-24T08:48:06;18.30;99.90
39919;DHT22;25589;51.552;13.424;2022-10-24T08:50:35;18.40;99.90
39919;DHT22;25589;51.552;13.424;2022-10-24T08:53:13;18.50;99.90
39919;DHT22;25589;51.552;13.424;2022-10-24T08:55:51;18.50;99.90
39919;DHT22;25589;51.552;13.424;2022-10-24T08:58:25;18.60;99.90
39919;DHT22;25589;51.552;13.424;2022-10-24T09:00:53;18.60;99.90
39919;DHT22;25589;51.552;13.424;2022-10-24T09:03:35;18.90;99.90
39919;DHT22;25589;51.552;13.424;2022-10-24T09:06:07;18.70;99.90
39919;DHT22;25589;51.552;13.424;2022-10-24T09:11:09;18.90;99.90
39919;DHT22;25589;51.552;13.424;2022-10-24T09:13:39;18.90;99.90
39919;DHT22;25589;51.552;13.424;2022-10-24T09:16:04;19.00;99.90
39919;DHT22;25589;51.552;13.424;2022-10-24T09:18:35;19.00;99.90
39919;DHT22;25589;51.552;13.424;2022-10-24T09:21:05;19.10;99.90
39919;DHT22;25589;51.552;13.424;2022-10-24T09:23:32;19.10;99.90
39919;DHT22;25589;51.552;13.424;2022-10-24T09:25:58;19.20;99.90
39919;DHT22;25589;51.552;13.424;2022-10-24T09:28:24;19.30;99.90
39919;DHT22;25589;51.552;13.424;2022-10-24T09:30:50;19.40;99.90
39919;DHT22;25589;51.552;13.424;2022-10-24T09:33:19;19.50;99.90
39919;DHT22;25589;51.552;13.424;2022-10-24T09:35:49;19.40;99.90
39919;DHT22;25589;51.552;13.424;2022-10-24T09:40:55;19.60;99.90
39919;DHT22;25589;51.552;13.424;2022-10-24T09:43:36;19.60;99.90
39919;DHT22;25589;51.552;13.424;2022-10-24T09:46:09;19.70;99.90
39919;DHT22;25589;51.552;13.424;2022-10-24T09:49:00;20.20;99.90
39919;DHT22;25589;51.552;13.424;2022-10-24T09:51:46;19.80;99.90
39919;DHT22;25589;51.552;13.424;2022-10-24T10:07:41;19.90;99.90
39919;DHT22;25589;51.552;13.424;2022-10-24T10:12:56;19.90;99.90
39919;DHT22;25589;51.552;13.424;2022-10-24T10:15:44;20.00;99.90
39919;DHT22;25589;51.552;13.424;2022-10-24T10:18:26;19.90;99.90
39919;DHT22;25589;51.552;13.424;2022-10-24T10:20:59;19.90;99.90
39919;DHT22;25589;51.552;13.424;2022-10-24T10:23:29;19.90;99.90
39919;DHT22;25589;51.552;13.424;2022-10-24T10:26:20;19.70;99.90
39919;DHT22;25589;51.552;13.424;2022-10-24T10:28:55;19.90;99.90
39919;DHT22;25589;51.552;13.424;2022-10-24T10:31:39;19.90;99.90
39919;DHT22;25589;51.552;13.424;2022-10-24T10:34:19;19.90;99.90
39919;DHT22;25589;51.552;13.424;2022-10-24T10:36:54;19.90;99.90
39919;DHT22;25589;51.552;13.424;2022-10-24T10:39:49;19.90;99.90
39919;DHT22;25589;51.552;13.424;2022-10-24T10:42:45;19.90;99.90
39919;DHT22;25589;51.552;13.424;2022-10-24T10:45:31;19.90;99.90
39919;DHT22;25589;51.552;13.424;2022-10-24T10:48:12;20.40;99.90
39919;DHT22;25589;51.552;13.424;2022-10-24T10:50:52;19.80;99.90
39919;DHT22;25589;51.552;13.424;2022-10-24T10:53:29;19.80;99.90
39919;DHT22;25589;51.552;13.424;2022-10-24T10:56:10;19.80;99.90
39919;DHT22;25589;51.552;13.424;2022-10-24T10:58:51;19.80;99.90
39919;DHT22;25589;51.552;13.424;2022-10-24T11:01:26;19.80;99.90
39919;DHT22;25589;51.552;13.424;2022-10-24T11:04:12;19.90;99.90
39919;DHT22;25589;51.552;13.424;2022-10-24T11:07:22;19.80;99.90
39919;DHT22;25589;51.552;13.424;2022-10-24T11:09:56;20.10;99.90
39919;DHT22;25589;51.552;13.424;2022-10-24T11:12:35;19.70;99.90
39919;DHT22;25589;51.552;13.424;2022-10-24T11:18:08;19.70;99.90
39919;DHT22;25589;51.552;13.424;2022-10-24T11:20:47;19.80;99.90
39919;DHT22;25589;51.552;13.424;2022-10-24T11:26:29;19.90;99.90
39919;DHT22;25589;51.552;13.424;2022-10-24T11:29:08;19.90;99.90
39919;DHT22;25589;51.552;13.424;2022-10-24T11:31:39;19.90;99.90
39919;DHT22;25589;51.552;13.424;2022-10-24T11:39:24;20.00;99.90
39919;DHT22;25589;51.552;13.424;2022-10-24T11:44:46;19.90;99.90
39919;DHT22;25589;51.552;13.424;2022-10-24T11:52:25;19.80;99.90
39919;DHT22;25589;51.552;13.424;2022-10-24T11:54:57;19.80;99.90
39919;DHT22;25589;51.552;13.424;2022-10-24T11:57:28;19.80;99.90
39919;DHT22;25589;51.552;13.424;2022-10-24T11:59:55;19.80;99.90
39919;DHT22;25589;51.552;13.424;2022-10-24T12:08:12;19.60;99.90
39919;DHT22;25589;51.552;13.424;2022-10-24T12:11:05;19.60;99.90
39919;DHT22;25589;51.552;13.424;2022-10-24T12:13:57;19.60;99.90
39919;DHT22;25589;51.552;13.424;2022-10-24T12:19:12;19.50;99.90
39919;DHT22;25589;51.552;13.424;2022-10-24T12:21:43;19.50;99.90
39919;DHT22;25589;51.552;13.424;2022-10-24T12:24:28;19.40;99.90
39919;DHT22;25589;51.552;13.424;2022-10-24T12:26:58;19.50;99.90
39919;DHT22;25589;51.552;13.424;2022-10-24T12:29:25;19.40;99.90
39919;DHT22;25589;51.552;13.424;2022-10-24T12:31:52;19.40;99.90
39919;DHT22;25589;51.552;13.424;2022-10-24T12:37:03;19.20;99.90
39919;DHT22;25589;51.552;13.424;2022-10-24T12:39:42;19.40;99.90
39919;DHT22;25589;51.552;13.424;2022-10-24T12:45:22;19.40;99.90
39919;DHT22;25589;51.552;13.424;2022-10-24T12:58:00;19.30;99.90
39919;DHT22;25589;51.552;13.424;2022-10-24T13:00:28;19.40;99.90
39919;DHT22;25589;51.552;13.424;2022-10-24T13:03:32;19.30;99.90
39919;DHT22;25589;51.552;13.424;2022-10-24T13:05:59;19.30;99.90
39919;DHT22;25589;51.552;13.424;2022-10-24T13:08:33;19.30;99.90
39919;DHT22;25589;51.552;13.424;2022-10-24T13:11:27;19.30;99.90
39919;DHT22;25589;51.552;13.424;2022-10-24T13:17:26;19.40;99.90
39919;DHT22;25589;51.552;13.424;2022-10-24T13:20:03;19.30;99.90
39919;DHT22;25589;51.552;13.424;2022-10-24T13:22:34;19.30;99.90
39919;DHT22;25589;51.552;13.424;2022-10-24T13:25:39;19.30;99.90
39919;DHT22;25589;51.552;13.424;2022-10-24T13:33:31;19.00;99.90
39919;DHT22;25589;51.552;13.424;2022-10-24T13:38:56;19.20;99.90
39919;DHT22;25589;51.552;13.424;2022-10-24T13:41:41;19.20;99.90
39919;DHT22;25589;51.552;13.424;2022-10-24T13:46:45;19.10;99.90
39919;DHT22;25589;51.552;13.424;2022-10-24T13:49:24;19.10;99.90
39919;DHT22;25589;51.552;13.424;2022-10-24T13:51:53;19.20;99.90
39919;DHT22;25589;51.552;13.424;2022-10-24T13:54:30;19.20;99.90
39919;DHT22;25589;51.552;13.424;2022-10-24T13:56:57;19.20;99.90
39919;DHT22;25589;51.552;13.424;2022-10-24T13:59:36;19.10;99.90
39919;DHT22;25589;51.552;13.424;2022-10-24T14:02:06;19.50;99.90
39919;DHT22;25589;51.552;13.424;2022-10-24T14:04:32;19.10;99.90
39919;DHT22;25589;51.552;13.424;2022-10-24T14:07:07;19.10;99.90
39919;DHT22;25589;51.552;13.424;2022-10-24T14:09:42;19.10;99.90
39919;DHT22;25589;51.552;13.424;2022-10-24T14:12:22;19.10;99.90
39919;DHT22;25589;51.552;13.424;2022-10-24T14:14:50;19.10;99.90
39919;DHT22;25589;51.552;13.424;2022-10-24T14:17:26;19.10;99.90
39919;DHT22;25589;51.552;13.424;2022-10-24T14:20:02;19.00;99.90
39919;DHT22;25589;51.552;13.424;2022-10-24T14:22:42;19.00;99.90
39919;DHT22;25589;51.552;13.424;2022-10-24T14:25:28;19.00;99.90
39919;DHT22;25589;51.552;13.424;2022-10-24T14:27:57;18.80;99.90
39919;DHT22;25589;51.552;13.424;2022-10-24T14:30:26;18.90;99.90
39919;DHT22;25589;51.552;13.424;2022-10-24T14:33:20;18.90;99.90
39919;DHT22;25589;51.552;13.424;2022-10-24T14:35:47;18.90;99.90
39919;DHT22;25589;51.552;13.424;2022-10-24T14:38:15;18.90;99.90
39919;DHT22;25589;51.552;13.424;2022-10-24T14:40:42;19.00;99.90
39919;DHT22;25589;51.552;13.424;2022-10-24T14:43:20;18.80;99.90
39919;DHT22;25589;51.552;13.424;2022-10-24T14:48:41;18.70;99.90
39919;DHT22;25589;51.552;13.424;2022-10-24T14:53:37;18.80;99.90
39919;DHT22;25589;51.552;13.424;2022-10-24T14:56:05;18.80;99.90
39919;DHT22;25589;51.552;13.424;2022-10-24T14:58:33;18.80;99.90
39919;DHT22;25589;51.552;13.424;2022-10-24T15:01:00;18.80;99.90
39919;DHT22;25589;51.552;13.424;2022-10-24T15:03:27;18.70;99.90
39919;DHT22;25589;51.552;13.424;2022-10-24T15:06:06;18.70;99.90
39919;DHT22;25589;51.552;13.424;2022-10-24T15:08:40;18.70;99.90
39919;DHT22;25589;51.552;13.424;2022-10-24T15:11:16;18.60;99.90
39919;DHT22;25589;51.552;13.424;2022-10-24T15:13:45;18.70;99.90
39919;DHT22;25589;51.552;13.424;2022-10-24T15:16:19;18.50;99.90
39919;DHT22;25589;51.552;13.424;2022-10-24T15:18:46;18.60;99.90
39919;DHT22;25589;51.552;13.424;2022-10-24T15:21:14;18.60;99.90
39919;DHT22;25589;51.552;13.424;2022-10-24T15:23:47;18.60;99.90
39919;DHT22;25589;51.552;13.424;2022-10-24T15:26:28;18.70;99.90
39919;DHT22;25589;51.552;13.424;2022-10-24T15:28:55;18.70;99.90
39919;DHT22;25589;51.552;13.424;2022-10-24T15:31:32;18.60;99.90
39919;DHT22;25589;51.552;13.424;2022-10-24T15:33:58;18.60;99.90
39919;DHT22;25589;51.552;13.424;2022-10-24T15:36:26;18.70;99.90
39919;DHT22;25589;51.552;13.424;2022-10-24T15:38:58;18.70;99.90
39919;DHT22;25589;51.552;13.424;2022-10-24T15:41:24;18.70;99.90
39919;DHT22;25589;51.552;13.424;2022-10-24T15:43:51;18.60;99.90
39919;DHT22;25589;51.552;13.424;2022-10-24T15:46:17;18.90;99.90
39919;DHT22;25589;51.552;13.424;2022-10-24T15:48:43;18.50;99.90
39919;DHT22;25589;51.552;13.424;2022-10-24T15:51:15;18.50;99.90
39919;DHT22;25589;51.552;13.424;2022-10-24T15:53:42;18.40;99.90
39919;DHT22;25589;51.552;13.424;2022-10-24T15:56:07;18.40;99.90
39919;DHT22;25589;51.552;13.424;2022-10-24T15:58:33;18.20;99.90
39919;DHT22;25589;51.552;13.424;2022-10-24T16:00:58;18.50;99.90
39919;DHT22;25589;51.552;13.424;2022-10-24T16:03:24;18.30;99.90
39919;DHT22;25589;51.552;13.424;2022-10-24T16:05:54;18.20;99.90
39919;DHT22;25589;51.552;13.424;2022-10-24T16:08:21;18.20;99.90
39919;DHT22;25589;51.552;13.424;2022-10-24T16:10:49;18.40;99.90
39919;DHT22;25589;51.552;13.424;2022-10-24T16:13:16;18.20;99.90
39919;DHT22;25589;51.552;13.424;2022-10-24T16:15:43;18.20;99.90
39919;DHT22;25589;51.552;13.424;2022-10-24T16:18:10;18.30;99.90
39919;DHT22;25589;51.552;13.424;2022-10-24T16:20:36;18.10;99.90
39919;DHT22;25589;51.552;13.424;2022-10-24T16:23:03;18.00;99.90
39919;DHT22;25589;51.552;13.424;2022-10-24T16:25:32;18.00;99.90
39919;DHT22;25589;51.552;13.424;2022-10-24T16:27:58;18.00;99.90
39919;DHT22;25589;51.552;13.424;2022-10-24T16:30:27;18.20;99.90
39919;DHT22;25589;51.552;13.424;2022-10-24T16:32:53;18.00;99.90
39919;DHT22;25589;51.552;13.424;2022-10-24T16:35:27;17.90;99.90
39919;DHT22;25589;51.552;13.424;2022-10-24T16:37:54;18.00;99.90
39919;DHT22;25589;51.552;13.424;2022-10-24T16:40:21;18.00;99.90
39919;DHT22;25589;51.552;13.424;2022-10-24T16:42:48;18.20;99.90
39919;DHT22;25589;51.552;13.424;2022-10-24T16:45:14;17.90;99.90
39919;DHT22;25589;51.552;13.424;2022-10-24T16:47:40;17.90;99.90
39919;DHT22;25589;51.552;13.424;2022-10-24T16:50:06;17.90;99.90
39919;DHT22;25589;51.552;13.424;2022-10-24T16:52:32;18.10;99.90
39919;DHT22;25589;51.552;13.424;2022-10-24T16:54:57;17.80;99.90
39919;DHT22;25589;51.552;13.424;2022-10-24T16:57:23;17.80;99.90
39919;DHT22;25589;51.552;13.424;2022-10-24T16:59:49;17.70;99.90
39919;DHT22;25589;51.552;13.424;2022-10-24T17:02:16;17.70;99.90
39919;DHT22;25589;51.552;13.424;2022-10-24T17:04:42;17.70;99.90
39919;DHT22;25589;51.552;13.424;2022-10-24T17:07:09;17.70;99.90
39919;DHT22;25589;51.552;13.424;2022-10-24T17:09:35;17.60;99.90
39919;DHT22;25589;51.552;13.424;2022-10-24T17:12:01;17.60;99.90
39919;DHT22;25589;51.552;13.424;2022-10-24T17:14:27;17.60;99.90
39919;DHT22;25589;51.552;13.424;2022-10-24T17:16:53;17.50;99.90
39919;DHT22;25589;51.552;13.424;2022-10-24T17:19:18;17.30;99.90
39919;DHT22;25589;51.552;13.424;2022-10-24T17:21:49;17.60;99.90
39919;DHT22;25589;51.552;13.424;2022-10-24T17:24:21;17.50;99.90
39919;DHT22;25589;51.552;13.424;2022-10-24T17:26:48;17.40;99.90